createdAt,value
2019-02-17T00:02:04.555Z,53.13
2019-02-17T00:04:33.892Z,53.13
2019-02-17T00:07:03.275Z,51.43
2019-02-17T00:09:34.167Z,49.80
2019-02-17T00:12:03.507Z,48.60
2019-02-17T00:14:32.874Z,49.17
2019-02-17T00:17:03.924Z,48.73
2019-02-17T00:19:33.374Z,49.67
2019-02-17T00:22:02.712Z,51.37
2019-02-17T00:24:32.086Z,51.43
2019-02-17T00:27:01.432Z,59.33
2019-02-17T00:29:30.798Z,59.67
2019-02-17T00:32:00.134Z,66.03
2019-02-17T00:34:29.505Z,61.83
2019-02-17T00:36:58.847Z,57.60
2019-02-17T00:39:28.215Z,57.03
2019-02-17T00:41:57.700Z,64.80
2019-02-17T00:44:27.064Z,57.87
2019-02-17T00:46:56.476Z,62.20
2019-02-17T00:49:26.519Z,66.23
2019-02-17T00:51:55.858Z,64.70
2019-02-17T00:54:25.735Z,60.53
2019-02-17T00:56:55.078Z,71.07
2019-02-17T00:59:24.442Z,52.40
2019-02-17T01:01:53.787Z,49.17
2019-02-17T01:04:23.531Z,44.03
2019-02-17T01:06:52.874Z,34.03
2019-02-17T01:09:22.830Z,31.17
2019-02-17T01:11:52.170Z,26.83
2019-02-17T01:14:21.537Z,22.87
2019-02-17T01:16:50.883Z,20.47
2019-02-17T01:19:20.244Z,21.07
2019-02-17T01:21:49.609Z,20.77
2019-02-17T01:24:18.998Z,20.83
2019-02-17T01:26:48.343Z,20.00
2019-02-17T01:29:20.436Z,19.23
2019-02-17T01:31:48.741Z,19.80
2019-02-17T01:34:18.121Z,24.33
2019-02-17T01:36:47.458Z,21.63
2019-02-17T01:39:16.814Z,23.77
2019-02-17T01:41:46.149Z,25.23
2019-02-17T01:44:15.511Z,25.00
2019-02-17T01:46:44.851Z,28.27
2019-02-17T01:49:14.214Z,27.80
2019-02-17T01:51:43.549Z,26.13
2019-02-17T01:54:12.913Z,25.77
2019-02-17T01:56:42.257Z,26.77
2019-02-17T01:59:11.629Z,26.50
2019-02-17T02:01:40.959Z,24.47
2019-02-17T02:04:10.336Z,25.33
2019-02-17T02:06:39.677Z,25.67
2019-02-17T02:09:09.713Z,26.57
2019-02-17T02:11:39.045Z,23.37
2019-02-17T02:14:08.409Z,22.07
2019-02-17T02:16:38.109Z,23.53
2019-02-17T02:19:07.476Z,26.60
2019-02-17T02:21:36.833Z,25.97
2019-02-17T02:24:06.208Z,23.63
2019-02-17T02:26:35.546Z,29.30
2019-02-17T02:29:04.921Z,22.00
2019-02-17T02:31:34.254Z,24.10
2019-02-17T02:34:03.617Z,22.27
2019-02-17T02:36:32.952Z,39.00
2019-02-17T02:39:02.335Z,21.90
2019-02-17T02:41:34.675Z,38.57
2019-02-17T02:44:02.821Z,32.77
2019-02-17T02:46:32.164Z,44.30
2019-02-17T02:49:01.522Z,21.97
2019-02-17T02:51:30.892Z,19.40
2019-02-17T02:54:00.257Z,19.47
2019-02-17T02:56:29.619Z,19.63
2019-02-17T02:58:58.951Z,18.80
2019-02-17T03:01:28.328Z,18.60
2019-02-17T03:03:57.662Z,18.67
2019-02-17T03:06:28.659Z,18.87
2019-02-17T03:08:58.007Z,19.30
2019-02-17T03:11:27.865Z,19.53
2019-02-17T03:13:57.150Z,18.70
2019-02-17T03:16:26.508Z,18.73
2019-02-17T03:18:55.839Z,18.87
2019-02-17T03:21:25.713Z,18.50
2019-02-17T03:23:55.047Z,17.90
2019-02-17T03:26:24.728Z,19.60
2019-02-17T03:28:54.064Z,18.43
2019-02-17T03:31:23.893Z,17.97
2019-02-17T03:33:53.481Z,17.30
2019-02-17T03:36:22.850Z,21.37
2019-02-17T03:38:52.194Z,19.03
2019-02-17T03:41:21.559Z,19.63
2019-02-17T03:43:50.975Z,19.40
2019-02-17T03:46:21.145Z,18.43
2019-02-17T03:48:50.482Z,19.77
2019-02-17T03:51:19.910Z,18.87
2019-02-17T03:53:49.243Z,20.80
2019-02-17T03:56:18.610Z,21.87
2019-02-17T03:58:47.946Z,20.63
2019-02-17T04:01:17.314Z,18.87
2019-02-17T04:03:46.731Z,22.63
2019-02-17T04:06:16.109Z,18.83
2019-02-17T04:08:45.436Z,19.07
2019-02-17T04:11:14.802Z,20.00
2019-02-17T04:13:44.141Z,24.80
2019-02-17T04:16:13.501Z,19.47
2019-02-17T04:18:42.837Z,21.43
2019-02-17T04:21:12.271Z,18.90
2019-02-17T04:23:41.620Z,18.20
2019-02-17T04:26:11.000Z,18.50
2019-02-17T04:28:40.341Z,17.10
2019-02-17T04:31:09.700Z,17.53
2019-02-17T04:33:39.044Z,16.83
2019-02-17T04:36:08.419Z,17.10
2019-02-17T04:38:37.756Z,18.27
2019-02-17T04:41:07.121Z,17.07
2019-02-17T04:43:36.452Z,17.17
2019-02-17T04:46:05.820Z,17.87
2019-02-17T04:48:35.153Z,18.77
2019-02-17T04:51:04.522Z,16.93
2019-02-17T04:53:33.850Z,17.33
2019-02-17T04:56:03.233Z,20.00
2019-02-17T04:58:32.580Z,17.73
2019-02-17T05:01:01.932Z,18.43
2019-02-17T05:03:31.317Z,18.13
2019-02-17T05:06:00.686Z,17.87
2019-02-17T05:08:30.013Z,19.37
2019-02-17T05:10:59.457Z,19.53
2019-02-17T05:13:28.827Z,19.00
2019-02-17T05:15:58.168Z,19.13
2019-02-17T05:18:27.504Z,17.90
2019-02-17T05:20:56.841Z,17.20
2019-02-17T05:23:26.201Z,15.67
2019-02-17T05:25:55.541Z,17.07
2019-02-17T05:28:24.907Z,17.30
2019-02-17T05:30:54.242Z,28.67
2019-02-17T05:33:23.614Z,23.77
2019-02-17T05:35:53.497Z,17.60
2019-02-17T05:38:22.891Z,24.63
2019-02-17T05:40:52.199Z,18.10
2019-02-17T05:43:21.576Z,22.13
2019-02-17T05:45:50.907Z,24.30
2019-02-17T05:48:20.272Z,29.80
2019-02-17T05:50:49.876Z,32.40
2019-02-17T05:53:19.408Z,43.13
2019-02-17T05:55:49.611Z,22.73
2019-02-17T05:58:18.992Z,21.27
2019-02-17T06:00:48.401Z,23.23
2019-02-17T06:03:17.779Z,22.27
2019-02-17T06:05:47.179Z,21.70
2019-02-17T06:08:16.550Z,24.07
2019-02-17T06:10:45.881Z,21.70
2019-02-17T06:13:15.268Z,22.80
2019-02-17T06:15:44.590Z,27.67
2019-02-17T06:18:14.019Z,22.57
2019-02-17T06:20:43.344Z,21.37
2019-02-17T06:23:13.376Z,21.30
2019-02-17T06:25:42.716Z,19.87
2019-02-17T06:28:12.074Z,19.10
2019-02-17T06:30:41.416Z,19.13
2019-02-17T06:33:10.778Z,18.63
2019-02-17T06:35:40.152Z,19.07
2019-02-17T06:38:09.509Z,19.23
2019-02-17T06:40:38.847Z,18.77
2019-02-17T06:43:08.205Z,20.50
2019-02-17T06:45:37.538Z,17.70
2019-02-17T06:48:06.907Z,18.73
2019-02-17T06:50:36.244Z,18.33
2019-02-17T06:53:05.597Z,18.07
2019-02-17T06:55:45.429Z,17.80
2019-02-17T06:58:14.793Z,18.30
2019-02-17T07:00:45.075Z,21.87
2019-02-17T07:03:14.583Z,25.47
2019-02-17T07:05:45.582Z,29.27
2019-02-17T07:08:15.029Z,33.97
2019-02-17T07:10:44.344Z,38.63
2019-02-17T07:13:13.782Z,38.97
2019-02-17T07:15:43.134Z,111.53
2019-02-17T07:18:12.501Z,183.70
2019-02-17T07:20:41.843Z,156.50
2019-02-17T07:23:11.233Z,44.17
2019-02-17T07:25:40.534Z,40.03
2019-02-17T07:28:09.902Z,41.47
2019-02-17T07:30:39.238Z,37.27
2019-02-17T07:33:08.640Z,32.10
2019-02-17T07:35:37.947Z,37.27
2019-02-17T07:38:07.310Z,33.87
2019-02-17T07:40:36.642Z,30.50
2019-02-17T07:43:06.026Z,31.50
2019-02-17T07:45:35.371Z,30.87
2019-02-17T07:48:04.754Z,33.37
2019-02-17T07:50:34.110Z,29.77
2019-02-17T07:53:03.447Z,29.40
2019-02-17T07:55:32.818Z,27.07
2019-02-17T07:58:02.140Z,30.83
2019-02-17T08:00:31.502Z,31.90
2019-02-17T08:03:00.833Z,32.77
2019-02-17T08:05:30.194Z,32.93
2019-02-17T08:07:59.527Z,29.03
2019-02-17T08:10:28.893Z,27.53
2019-02-17T08:12:58.223Z,25.87
2019-02-17T08:15:27.617Z,29.90
2019-02-17T08:17:56.934Z,31.60
2019-02-17T08:20:26.450Z,32.07
2019-02-17T08:22:55.782Z,34.57
2019-02-17T08:25:25.638Z,27.27
2019-02-17T08:27:54.964Z,25.83
2019-02-17T08:30:24.323Z,26.60
2019-02-17T08:32:53.648Z,22.33
2019-02-17T08:35:23.479Z,24.93
2019-02-17T08:37:52.821Z,30.30
2019-02-17T08:40:22.665Z,22.97
2019-02-17T08:42:51.990Z,27.10
2019-02-17T08:45:21.365Z,30.27
2019-02-17T08:47:50.698Z,32.80
2019-02-17T08:50:20.281Z,35.17
2019-02-17T08:52:49.570Z,37.20
2019-02-17T08:55:18.941Z,38.57
2019-02-17T08:57:48.278Z,36.73
2019-02-17T09:00:17.639Z,27.33
2019-02-17T09:02:46.975Z,25.43
2019-02-17T09:05:16.328Z,24.90
2019-02-17T09:07:45.667Z,30.40
2019-02-17T09:10:15.033Z,23.50
2019-02-17T09:12:44.373Z,25.80
2019-02-17T09:15:13.731Z,25.70
2019-02-17T09:17:43.073Z,45.00
2019-02-17T09:20:12.440Z,26.63
2019-02-17T09:22:41.774Z,21.97
2019-02-17T09:25:11.813Z,21.03
2019-02-17T09:27:41.184Z,21.93
2019-02-17T09:30:15.393Z,25.67
2019-02-17T09:32:44.737Z,24.30
2019-02-17T09:35:14.111Z,23.53
2019-02-17T09:37:43.458Z,23.60
2019-02-17T09:40:13.167Z,25.40
2019-02-17T09:42:42.510Z,25.80
2019-02-17T09:45:13.818Z,44.43
2019-02-17T09:47:43.158Z,21.83
2019-02-17T09:50:15.369Z,22.40
2019-02-17T09:52:44.727Z,22.97
2019-02-17T09:55:14.090Z,23.03
2019-02-17T09:57:43.435Z,21.10
2019-02-17T10:00:15.010Z,24.33
2019-02-17T10:02:44.354Z,19.97
2019-02-17T10:05:13.785Z,26.17
2019-02-17T10:07:43.129Z,23.60
2019-02-17T10:10:14.433Z,24.87
2019-02-17T10:12:43.771Z,23.57
2019-02-17T10:15:13.685Z,22.50
2019-02-17T10:17:43.022Z,22.80
2019-02-17T10:20:15.864Z,23.53
2019-02-17T10:22:45.193Z,22.67
2019-02-17T10:25:14.569Z,21.63
2019-02-17T10:27:43.934Z,23.17
2019-02-17T10:30:14.735Z,22.50
2019-02-17T10:32:44.101Z,22.87
2019-02-17T10:35:13.493Z,23.67
2019-02-17T10:37:42.864Z,28.07
2019-02-17T10:40:14.797Z,56.27
2019-02-17T10:42:44.244Z,48.33
2019-02-17T10:45:13.701Z,35.50
2019-02-17T10:47:43.053Z,23.43
2019-02-17T10:50:12.827Z,22.53
2019-02-17T10:52:42.281Z,49.10
2019-02-17T10:55:12.959Z,22.67
2019-02-17T10:57:42.343Z,53.13
2019-02-17T11:00:14.792Z,25.07
2019-02-17T11:02:47.183Z,22.53
2019-02-17T11:05:15.351Z,24.50
2019-02-17T11:07:44.712Z,25.03
2019-02-17T11:10:14.394Z,24.00
2019-02-17T11:12:43.764Z,23.43
2019-02-17T11:15:20.075Z,22.67
2019-02-17T11:17:49.438Z,23.87
2019-02-17T11:20:18.789Z,25.83
2019-02-17T11:22:48.152Z,26.27
2019-02-17T11:25:17.498Z,25.00
2019-02-17T11:27:46.867Z,25.53
2019-02-17T11:30:20.822Z,35.30
2019-02-17T11:32:57.739Z,31.33
2019-02-17T11:35:21.222Z,40.80
2019-02-17T11:37:50.840Z,26.83
2019-02-17T11:40:20.178Z,25.00
2019-02-17T11:42:49.549Z,25.90
2019-02-17T11:45:19.334Z,26.80
2019-02-17T11:47:48.698Z,24.93
2019-02-17T11:50:18.050Z,26.80
2019-02-17T11:52:47.415Z,26.40
2019-02-17T11:55:16.754Z,25.87
2019-02-17T11:57:46.119Z,24.37
2019-02-17T12:00:22.179Z,25.50
2019-02-17T12:02:51.543Z,26.70
2019-02-17T12:05:20.889Z,26.30
2019-02-17T12:07:50.261Z,28.27
2019-02-17T12:10:19.607Z,24.00
2019-02-17T12:12:48.978Z,26.37
2019-02-17T12:15:18.316Z,25.57
2019-02-17T12:17:47.684Z,25.47
2019-02-17T12:20:32.066Z,23.80
2019-02-17T12:23:03.071Z,23.70
2019-02-17T12:25:34.047Z,23.60
2019-02-17T12:28:05.059Z,23.63
2019-02-17T12:30:34.389Z,23.40
2019-02-17T12:33:03.757Z,24.57
2019-02-17T12:35:33.095Z,23.63
2019-02-17T12:38:02.455Z,24.37
2019-02-17T12:40:31.797Z,25.13
2019-02-17T12:43:01.163Z,26.03
2019-02-17T12:45:30.507Z,25.27
2019-02-17T12:47:59.881Z,24.80
2019-02-17T12:50:29.227Z,25.73
2019-02-17T12:52:58.603Z,25.83
2019-02-17T12:55:27.944Z,24.90
2019-02-17T12:57:57.783Z,26.67
2019-02-17T13:00:27.151Z,26.80
2019-02-17T13:02:56.529Z,25.60
2019-02-17T13:05:25.917Z,27.43
2019-02-17T13:07:55.255Z,25.77
2019-02-17T13:10:24.642Z,26.70
2019-02-17T13:12:53.991Z,31.57
2019-02-17T13:15:23.907Z,26.33
2019-02-17T13:17:53.421Z,26.33
2019-02-17T13:20:22.790Z,30.37
2019-02-17T13:22:52.139Z,27.13
2019-02-17T13:25:21.509Z,28.90
2019-02-17T13:27:50.852Z,25.53
2019-02-17T13:30:22.633Z,28.83
2019-02-17T13:32:51.964Z,26.10
2019-02-17T13:35:21.322Z,26.80
2019-02-17T13:37:50.661Z,27.43
2019-02-17T13:40:20.102Z,25.37
2019-02-17T13:42:49.443Z,26.00
2019-02-17T13:45:18.815Z,25.60
2019-02-17T13:47:48.154Z,26.03
2019-02-17T13:50:17.700Z,26.67
2019-02-17T13:52:47.043Z,26.67
2019-02-17T13:55:16.416Z,26.17
2019-02-17T13:57:46.052Z,26.80
2019-02-17T14:00:19.811Z,33.57
2019-02-17T14:02:49.157Z,35.63
2019-02-17T14:05:18.522Z,33.63
2019-02-17T14:07:47.867Z,37.53
2019-02-17T14:10:17.234Z,38.93
2019-02-17T14:12:46.572Z,40.63
2019-02-17T14:15:19.588Z,30.93
2019-02-17T14:17:48.936Z,27.70
2019-02-17T14:20:18.311Z,31.63
2019-02-17T14:22:47.650Z,34.90
2019-02-17T14:25:17.040Z,28.63
2019-02-17T14:27:46.368Z,27.17
2019-02-17T14:30:16.784Z,25.53
2019-02-17T14:32:46.123Z,28.60
2019-02-17T14:35:15.490Z,27.73
2019-02-17T14:37:44.833Z,25.60
2019-02-17T14:40:14.535Z,27.57
2019-02-17T14:42:43.881Z,27.07
2019-02-17T14:45:17.059Z,27.43
2019-02-17T14:47:46.415Z,26.73
2019-02-17T14:50:15.787Z,34.67
2019-02-17T14:52:45.130Z,28.93
2019-02-17T14:55:14.502Z,27.93
2019-02-17T14:57:43.842Z,33.63
2019-02-17T15:00:14.665Z,35.90
2019-02-17T15:02:43.993Z,36.17
2019-02-17T15:05:13.362Z,31.43
2019-02-17T15:07:42.708Z,33.33
2019-02-17T15:10:13.203Z,33.07
2019-02-17T15:12:42.547Z,40.77
2019-02-17T15:15:13.259Z,49.37
2019-02-17T15:17:42.594Z,47.90
2019-02-17T15:20:23.721Z,43.97
2019-02-17T15:22:53.061Z,47.67
2019-02-17T15:25:22.623Z,54.57
2019-02-17T15:27:51.971Z,47.23
2019-02-17T15:30:21.401Z,36.33
2019-02-17T15:32:50.767Z,31.33
2019-02-17T15:35:22.332Z,46.37
2019-02-17T15:37:51.141Z,44.50
2019-02-17T15:40:20.814Z,41.43
2019-02-17T15:42:50.145Z,36.63
2019-02-17T15:45:19.525Z,36.90
2019-02-17T15:47:48.873Z,38.53
2019-02-17T15:50:18.243Z,36.37
2019-02-17T15:52:47.602Z,33.60
2019-02-17T15:55:16.938Z,35.33
2019-02-17T15:57:46.309Z,33.67
2019-02-17T16:00:17.755Z,37.77
2019-02-17T16:02:47.116Z,33.00
2019-02-17T16:05:16.468Z,32.37
2019-02-17T16:07:45.825Z,33.10
2019-02-17T16:10:16.401Z,32.20
2019-02-17T16:12:45.767Z,33.80
2019-02-17T16:15:20.880Z,31.47
2019-02-17T16:17:50.244Z,31.83
2019-02-17T16:20:19.580Z,32.07
2019-02-17T16:22:48.944Z,33.60
2019-02-17T16:25:18.277Z,33.83
2019-02-17T16:27:47.647Z,33.27
2019-02-17T16:30:23.431Z,32.43
2019-02-17T16:32:52.799Z,37.33
2019-02-17T16:35:22.139Z,33.37
2019-02-17T16:37:51.579Z,41.57
2019-02-17T16:40:20.917Z,39.47
2019-02-17T16:42:50.284Z,33.73
2019-02-17T16:45:19.617Z,34.03
2019-02-17T16:47:49.151Z,31.67
2019-02-17T16:50:23.635Z,32.03
2019-02-17T16:52:53.338Z,32.97
2019-02-17T16:55:22.681Z,33.70
2019-02-17T16:57:52.046Z,33.10
2019-02-17T17:00:25.308Z,32.60
2019-02-17T17:02:57.744Z,35.10
2019-02-17T17:05:27.067Z,35.93
2019-02-17T17:07:56.431Z,32.93
2019-02-17T17:10:25.849Z,36.27
2019-02-17T17:12:55.482Z,47.77
2019-02-17T17:15:24.821Z,43.70
2019-02-17T17:17:54.635Z,42.83
2019-02-17T17:20:23.979Z,51.13
2019-02-17T17:22:53.350Z,47.33
2019-02-17T17:25:22.696Z,42.20
2019-02-17T17:27:52.439Z,46.40
2019-02-17T17:30:21.768Z,48.53
2019-02-17T17:32:51.136Z,47.83
2019-02-17T17:35:20.792Z,81.17
2019-02-17T17:37:50.158Z,65.07
2019-02-17T17:40:19.512Z,47.53
2019-02-17T17:42:48.873Z,60.17
2019-02-17T17:45:21.991Z,67.60
2019-02-17T17:47:51.382Z,75.40
2019-02-17T17:50:20.785Z,72.17
2019-02-17T17:52:50.156Z,86.60
2019-02-17T17:55:19.519Z,90.20
2019-02-17T17:57:48.890Z,91.47
2019-02-17T18:00:20.731Z,96.93
2019-02-17T18:02:50.091Z,97.97
2019-02-17T18:05:19.455Z,99.37
2019-02-17T18:07:48.827Z,115.63
2019-02-17T18:10:18.207Z,120.63
2019-02-17T18:12:47.594Z,125.97
2019-02-17T18:15:18.295Z,129.80
2019-02-17T18:17:54.648Z,149.77
2019-02-17T18:20:18.786Z,182.03
2019-02-17T18:22:48.150Z,161.73
2019-02-17T18:25:17.532Z,162.67
2019-02-17T18:27:46.910Z,177.33
2019-02-17T18:30:22.642Z,192.10
2019-02-17T18:32:52.045Z,194.43
2019-02-17T18:35:21.385Z,198.73
2019-02-17T18:37:50.838Z,199.90
2019-02-17T18:40:20.586Z,196.17
2019-02-17T18:42:49.936Z,202.83
2019-02-17T18:45:19.318Z,200.13
2019-02-17T18:47:48.651Z,232.43
2019-02-17T18:50:18.856Z,221.63
2019-02-17T18:52:48.208Z,221.20
2019-02-17T18:55:17.578Z,221.13
2019-02-17T18:57:50.864Z,212.97
2019-02-17T19:00:25.590Z,221.00
2019-02-17T19:02:54.938Z,218.90
2019-02-17T19:05:32.045Z,221.47
2019-02-17T19:07:56.833Z,219.83
2019-02-17T19:10:26.215Z,240.63
2019-02-17T19:12:55.568Z,229.30
2019-02-17T19:15:24.946Z,231.33
2019-02-17T19:17:54.284Z,232.63
2019-02-17T19:20:31.458Z,224.67
2019-02-17T19:23:01.485Z,218.93
2019-02-17T19:25:30.864Z,215.33
2019-02-17T19:28:00.211Z,209.13
2019-02-17T19:30:29.592Z,215.50
2019-02-17T19:32:58.947Z,212.00
2019-02-17T19:35:28.322Z,207.13
2019-02-17T19:37:57.669Z,189.07
2019-02-17T19:40:29.891Z,186.13
2019-02-17T19:42:59.237Z,188.30
2019-02-17T19:45:28.616Z,202.77
2019-02-17T19:47:57.954Z,199.80
2019-02-17T19:50:27.602Z,218.70
2019-02-17T19:52:56.949Z,235.13
2019-02-17T19:55:26.322Z,231.10
2019-02-17T19:57:55.674Z,202.17
2019-02-17T20:00:26.094Z,196.47
2019-02-17T20:03:01.605Z,207.73
2019-02-17T20:05:32.614Z,198.00
2019-02-17T20:08:01.967Z,191.67
2019-02-17T20:10:31.345Z,204.63
2019-02-17T20:13:02.325Z,215.80
2019-02-17T20:15:33.354Z,227.53
2019-02-17T20:18:02.706Z,224.83
2019-02-17T20:20:32.079Z,224.33
2019-02-17T20:23:02.709Z,227.43
2019-02-17T20:25:32.089Z,224.47
2019-02-17T20:28:01.446Z,223.17
2019-02-17T20:30:30.802Z,232.77
2019-02-17T20:33:00.166Z,235.53
2019-02-17T20:35:29.523Z,230.93
2019-02-17T20:37:58.867Z,232.50
2019-02-17T20:40:28.241Z,229.73
2019-02-17T20:42:57.587Z,229.73
2019-02-17T20:45:26.953Z,232.53
2019-02-17T20:47:56.298Z,230.60
2019-02-17T20:50:26.088Z,229.77
2019-02-17T20:52:55.439Z,224.17
2019-02-17T20:55:25.168Z,218.17
2019-02-17T20:57:54.543Z,221.30
2019-02-17T21:00:25.713Z,202.80
2019-02-17T21:02:55.144Z,184.90
2019-02-17T21:05:24.591Z,186.40
2019-02-17T21:07:54.195Z,179.63
2019-02-17T21:10:23.927Z,171.07
2019-02-17T21:12:53.303Z,173.30
2019-02-17T21:15:22.921Z,161.47
2019-02-17T21:17:52.288Z,160.10
2019-02-17T21:20:22.406Z,167.63
2019-02-17T21:22:53.073Z,168.17
2019-02-17T21:25:22.600Z,165.63
2019-02-17T21:27:51.975Z,161.87
2019-02-17T21:30:21.322Z,156.47
2019-02-17T21:32:50.696Z,190.37
2019-02-17T21:35:20.055Z,205.03
2019-02-17T21:37:49.428Z,211.73
2019-02-17T21:40:18.943Z,228.23
2019-02-17T21:42:48.315Z,218.67
2019-02-17T21:45:17.666Z,208.70
2019-02-17T21:47:47.035Z,222.57
2019-02-17T21:50:16.384Z,202.63
2019-02-17T21:52:45.761Z,188.77
2019-02-17T21:55:15.287Z,195.60
2019-02-17T21:57:44.670Z,159.97
2019-02-17T22:00:19.918Z,153.97
2019-02-17T22:02:49.319Z,152.60
2019-02-17T22:05:18.831Z,145.87
2019-02-17T22:07:48.198Z,149.17
2019-02-17T22:10:20.890Z,157.03
2019-02-17T22:12:51.257Z,160.17
2019-02-17T22:15:22.314Z,168.37
2019-02-17T22:17:51.698Z,156.13
2019-02-17T22:20:21.044Z,151.27
2019-02-17T22:22:50.493Z,140.50
2019-02-17T22:25:19.842Z,141.53
2019-02-17T22:27:49.219Z,134.13
2019-02-17T22:30:18.577Z,129.87
2019-02-17T22:32:47.959Z,134.10
2019-02-17T22:35:17.330Z,118.30
2019-02-17T22:37:46.701Z,112.93
2019-02-17T22:40:16.218Z,114.67
2019-02-17T22:42:45.590Z,113.20
2019-02-17T22:45:15.104Z,108.90
2019-02-17T22:47:44.475Z,113.33
2019-02-17T22:50:14.465Z,110.90
2019-02-17T22:52:44.974Z,110.00
2019-02-17T22:55:14.602Z,113.70
2019-02-17T22:57:44.035Z,106.87
2019-02-17T23:00:19.481Z,112.23
2019-02-17T23:02:48.856Z,106.27
2019-02-17T23:05:18.191Z,102.03
2019-02-17T23:07:47.577Z,105.50
2019-02-17T23:10:16.919Z,102.33
2019-02-17T23:12:46.286Z,105.13
2019-02-17T23:15:15.633Z,105.57
2019-02-17T23:17:45.001Z,106.73
2019-02-17T23:20:14.347Z,104.73
2019-02-17T23:22:43.718Z,108.60
2019-02-17T23:25:13.058Z,106.27
2019-02-17T23:27:42.426Z,104.33
2019-02-17T23:30:12.139Z,111.90
2019-02-17T23:32:41.526Z,102.67
2019-02-17T23:35:11.466Z,104.97
2019-02-17T23:37:40.844Z,106.23
2019-02-17T23:40:11.256Z,102.17
2019-02-17T23:42:40.600Z,105.37
2019-02-17T23:45:13.707Z,107.07
2019-02-17T23:47:43.060Z,110.57
